Airport ICAO


11:04 UTC

20°C

Broken clouds


An affordable passengers' Moving Map for your aircraft. Made for the iPad and the iPhone
More information here

EGWU Northolt


Northolt UNITED KINGDOM   VFR


METAR EGWU 191050Z 23012KT 9999 BKN018 BKN020 20/16 Q1018 NOSIG 0h14min

TAF EGWU 190725Z 1909/2003 23012KT 9999 FEW014 BKN016 TEMPO 1909/1911 BKN012 PROB30 TEMPO 1909/1915 26015G25KT PROB30 TEMPO 1915/2003 FEW018 BKN030 3h39min





NOTAMS

OPEN